Portia, AR (72457)

8:25 PM CST on March 06, 2015 (GMT -0600)
Walnut Ridge Regional | Change Station
CLOSE
Current Station
Airport
Location: Walnut Ridge,
Elevation: 272 ft
Nearby Weather Stations
Active Advisory: Flood Warning Active Notice: Record Report

Elev 272 ft 36.12 °N, 90.93 °W | Updated 10 minutes ago

Clear
Clear
25 °F
Feels Like 14 °F
N
12
Wind Variable Wind from South

Today
High -- | Low -- °F
--% Chance of Precip.
Yesterday
High -- | Low -- °F
Precip. -- in
6:28 AM 6:03 PM
Full, 98% visible
Pressure 30.45 in
Visibility 10.0 miles
Clouds Clear
Windchill 14 °F
Dew Point 16 °F
Humidity 69%
Rainfall 0.00 in
Snow Depth Not available.
UV 0 out of 12
Pollen 4.10 out of 12
Air Quality Not available.
Flu Activity Not available.
METAR KARG 070215Z AUTO 19010KT 10SM CLR M04/M09 A3045 RMK AO1

More Conditions Fewer Conditions

Pressure 30.45 in
Visibility 10.0 miles
Clouds Clear
Windchill 14 °F
Dew Point 16 °F
Humidity 69%
Rainfall 0.00 in
Snow Depth Not available.
UV 0 out of 12
Pollen 4.10 out of 12
Air Quality Not available.
Flu Activity Not available.
METAR KARG 070215Z AUTO 19010KT 10SM CLR M04/M09 A3045 RMK AO1

More Conditions Fewer Conditions

10-Day Weather Forecast

Almanac

Astronomy

Mar. 06, 2015 Rise Set
Actual Time
Civil Twilight
Nautical Twilight
Astronomical Twilight
Moon
Length of Visible Light
Length of Day
Tomorrow will be .
, % of the Moon is Illuminated

Today's Extremes

State Highs State Lows

Community

WunderPhotos

Upload Photos

1,803,499 photos uploaded!

WunderBlogs® & News

Nearby

Air Quality

  Air Quality AQ Index Pollutant
Not available.

Snow Depth

Station Depth Elevation

Earthquake Activity

City Distance Mag. Time & Date
Minimum magnitude displayed is 2.5.

Coastal Water Temperatures

Place Temperature

Nearby Weather Stations

Flood Warning
Statement as of 7:21 PM CST on March 06, 2015

The Flood Warning continues for
the Black River at Black Rock.
* Until Monday morning... or until the warning is cancelled.
* At 7:00 PM Friday the stage was 15.0 feet.
* Minor flooding is occurring and minor flooding is forecast.
* Flood stage is 14.0 feet.
* Forecast... the river will continue to fall to below flood stage by
early Sunday morning.





             Fld observed forecast 7 am
location stg stg day time Sat sun Mon Tue Wed

Black River
Black Rock 14 15.0 Fri 07 PM 14.8 13.8 13.1 12.8 12.9




Lat... Lon 3570 9140 3591 9125 3612 9115 3610 9101
3588 9110 3564 9128




224